Barcelona Knutsen — EACW — position and weather

sailwx.info

Track history (hours):
 
Tides and Currents Weather Stations Pressure Air Temp Water Temp Dewpoint Dewpoint Depression Visibility Wind Speed Wind Dir Waves Ship Positions

Barcelona Knutsen

Last reported at 2017-Sep-22 02:00 UTC. Time now 2017-Sep-25 22:40 UTC.
Position N 38°56' E 117°53'.

Length 290 m; draft 10.8 m.

Type: Tanker. MMSI: 224436000.

Date/timePositionNaut miles runAvg speedWind from/ knotsBaromVisibWave heightAir tempDewpointWater temp
2017-Sep-22 02:00N 38°56' E 117°53'0 0.0
2017-Sep-21 02:47N 38°56' E 117°53'0 0.6
2017-Sep-21 02:30N 38°55' E 117°53'1 1.7
2017-Sep-21 02:00N 38°55' E 117°53'3 6.5
2017-Sep-21 01:30N 38°53' E 117°57'6 9.6
2017-Sep-21 00:51N 38°49' E 118°03'3 7.7
2017-Sep-21 00:30N 38°48' E 118°06'4 8.7
2017-Sep-21 00:00N 38°48' E 118°12'5 9.8
2017-Sep-20 23:30N 38°50' E 118°18'13614.3
2017-Sep-20 14:01N 38°32' E 121°10'815.9
2017-Sep-20 13:29N 38°31' E 121°21'816.1
2017-Sep-20 13:00N 38°29' E 121°30'916.1
2017-Sep-20 12:27N 38°26' E 121°41'716.0
2017-Sep-20 12:00N 38°25' E 121°50'30215.3
2017-Sep-19 16:17N 33°46' E 124°12'519.0
2017-Sep-19 16:00N 33°41' E 124°13'1019.2
2017-Sep-19 15:31N 33°32' E 124°16'1019.1
2017-Sep-19 14:59N 33°22' E 124°19'919.2
2017-Sep-19 14:30N 33°13' E 124°20'1018.4
2017-Sep-19 13:56N 33°06' E 124°30'819.0
2017-Sep-19 13:30N 32°60' E 124°36'918.7
2017-Sep-19 13:00N 32°54' E 124°45'1418.7
2017-Sep-19 12:16N 32°47' E 124°59'6517.9
2017-Sep-19 08:38N 32°17' E 126°07'3917.7
2017-Sep-19 06:25N 31°53' E 126°44'  
Track history (hours):
 
Tides and Currents Weather Stations Pressure Air Temp Water Temp Dewpoint Dewpoint Depression Visibility Wind Speed Wind Dir Waves Ship Positions

Barcelona Knutsen

Last reported at 2017-Sep-22 02:00 UTC. Time now 2017-Sep-25 22:40 UTC.
Position N 38°56' E 117°53'.

Length 290 m; draft 10.8 m.

Type: Tanker. MMSI: 224436000.

Date/timePositionNaut miles runAvg speedWind from/ knotsBaromVisibWave heightAir tempDewpointWater temp
2017-Sep-22 02:00N 38°56' E 117°53'0 0.0
2017-Sep-21 02:47N 38°56' E 117°53'0 0.6
2017-Sep-21 02:30N 38°55' E 117°53'1 1.7
2017-Sep-21 02:00N 38°55' E 117°53'3 6.5
2017-Sep-21 01:30N 38°53' E 117°57'6 9.6
2017-Sep-21 00:51N 38°49' E 118°03'3 7.7
2017-Sep-21 00:30N 38°48' E 118°06'4 8.7
2017-Sep-21 00:00N 38°48' E 118°12'5 9.8
2017-Sep-20 23:30N 38°50' E 118°18'13614.3
2017-Sep-20 14:01N 38°32' E 121°10'815.9
2017-Sep-20 13:29N 38°31' E 121°21'816.1
2017-Sep-20 13:00N 38°29' E 121°30'916.1
2017-Sep-20 12:27N 38°26' E 121°41'716.0
2017-Sep-20 12:00N 38°25' E 121°50'30215.3
2017-Sep-19 16:17N 33°46' E 124°12'519.0
2017-Sep-19 16:00N 33°41' E 124°13'1019.2
2017-Sep-19 15:31N 33°32' E 124°16'1019.1
2017-Sep-19 14:59N 33°22' E 124°19'919.2
2017-Sep-19 14:30N 33°13' E 124°20'1018.4
2017-Sep-19 13:56N 33°06' E 124°30'819.0
2017-Sep-19 13:30N 32°60' E 124°36'918.7
2017-Sep-19 13:00N 32°54' E 124°45'1418.7
2017-Sep-19 12:16N 32°47' E 124°59'6517.9
2017-Sep-19 08:38N 32°17' E 126°07'3917.7
2017-Sep-19 06:25N 31°53' E 126°44'  

Dump ship's entire track history